Hauptseite
METAR-TAF:

METAR-TAF

Flughäfen :

Verkehrslandeplatz Mönchengladbach

Mönchengladbach, Deutschland

Breite: 51-13-49N, Länge: 006-30-16E, Höhe: 38 m

Beobachtung

Neuester Wetterbericht von vor 27 Minuten, um 19:20 UTC
Wind 3 kt aus Ost/Südost
Temperatur 11°C
Luftfeuchtigkeit 94%
Luftdruck 1014 hPa
Sichtweite 10 km oder mehr

METAR: EDLN 181920Z AUTO 11003KT 9999 // BKN046/// 11/10 Q1014

Zeit: 21:47 (19:47 UTC)

Prognose

Neuester Wetterbericht von vor 2 Stunden und 47 Minuten, um 17:00 UTC
Gültige Prognose vom 18 um 18 UTC bis 19 um 03 UTC
Wind 3 kt aus unterschiedlichen Richtungen
Sichtweite 10 km oder mehr
Aufgelockert bewölkt in der Höhe von 3000 ft

TAF: EDLN 181700Z 1818/1903 VRB03KT 9999 SCT030

Wetterbeobachtungen und Prognosen von mehr als 4000 Flughäfen (METAR und TAF Bericht).

Die verfügbaren Stationen werden durch gelbe und rote Markierungen auf der Karte dargestellt.

Führen Sie die Maus auf sie, um den Namen der Station zu sehen.

Darauf klicken, um die Beobachtung von Wetterbeobachtungen und Prognosen zu sehen.

Um die Karte zu ändern : klicken Sie auf den grünen Tasten mit einem schwarzen Kreuz Zum Vergrößern, auf den grünen Button mit einem Gedankenstrich zu verkleinern, oder auf die grünen Pfeile für benachbarte Karten.


METAR-TAF: